Time;durP1;ratioP1;P1;durP2;ratioP2;P2;SDS_P1;SDS_P2;PMS_P1;PMS_P2;Temp;Humidity;BMP_temperature;BMP_pressure;BME280_temperature;BME280_humidity;BME280_pressure;Samples;Min_cycle;Max_cycle;Signal;HPM_P1;HPM_P2
2021/11/01 00:00:18;;;;;;;5.43;3.67;;;;;;;11.77;67.37;97541.94;5073396;28;41937;-85
2021/11/01 00:02:47;;;;;;;4.73;3.10;;;;;;;11.67;67.30;97527.78;5089396;28;42375;-88
2021/11/01 00:05:15;;;;;;;8.27;4.37;;;;;;;11.67;67.56;97529.59;5089884;28;40002;-84
2021/11/01 00:07:43;;;;;;;5.50;3.20;;;;;;;11.76;67.69;97545.56;5107265;28;41580;-85
2021/11/01 00:10:12;;;;;;;7.17;4.80;;;;;;;11.81;68.60;97537.22;5073002;28;43156;-86
2021/11/01 00:12:42;;;;;;;6.43;4.47;;;;;;;11.86;69.03;97527.91;5105931;28;42286;-85
2021/11/01 00:15:10;;;;;;;6.57;3.90;;;;;;;11.93;68.97;97524.69;5091406;28;39859;-87
2021/11/01 00:17:39;;;;;;;6.87;4.07;;;;;;;11.98;68.91;97506.56;5089407;28;42638;-86
2021/11/01 00:20:07;;;;;;;5.23;4.20;;;;;;;12.00;69.33;97504.56;5090452;28;42396;-87
2021/11/01 00:22:36;;;;;;;6.23;4.30;;;;;;;11.98;69.05;97474.72;5076369;28;41342;-89
2021/11/01 00:25:06;;;;;;;5.90;3.90;;;;;;;12.02;68.56;97465.47;5071371;28;39927;-84
2021/11/01 00:27:34;;;;;;;5.27;3.67;;;;;;;12.17;68.65;97469.41;5069870;28;42805;-87
2021/11/01 00:30:04;;;;;;;6.20;3.50;;;;;;;12.18;68.63;97476.38;5071543;28;41975;-88
2021/11/01 00:32:32;;;;;;;6.03;3.90;;;;;;;12.15;68.93;97488.13;5090293;28;42270;-85
2021/11/01 00:35:00;;;;;;;5.23;3.80;;;;;;;12.00;68.86;97462.97;5073328;28;39306;-84
2021/11/01 00:37:28;;;;;;;4.63;3.77;;;;;;;11.99;68.91;97452.50;5090438;28;40938;-87
2021/11/01 00:39:58;;;;;;;4.17;3.20;;;;;;;12.06;68.83;97474.84;5089313;28;42772;-86
2021/11/01 00:42:27;;;;;;;5.13;3.40;;;;;;;12.07;69.09;97476.53;5089227;28;42013;-85
2021/11/01 00:44:54;;;;;;;4.40;3.40;;;;;;;12.06;69.16;97477.50;5089598;28;38782;-82
2021/11/01 00:47:24;;;;;;;6.50;4.10;;;;;;;12.01;69.09;97475.25;5090488;28;42371;-82
2021/11/01 00:49:51;;;;;;;5.10;3.43;;;;;;;11.99;69.01;97487.81;5072243;28;41404;-83
2021/11/01 00:52:23;;;;;;;4.83;3.40;;;;;;;11.98;69.20;97491.47;5072604;28;41399;-80
2021/11/01 00:54:52;;;;;;;4.87;3.30;;;;;;;11.94;68.86;97489.22;5076821;28;39477;-82
2021/11/01 00:57:20;;;;;;;4.53;2.90;;;;;;;11.93;68.92;97487.53;5076076;28;41782;-81
2021/11/01 00:59:47;;;;;;;5.50;3.63;;;;;;;11.93;69.14;97491.03;5091775;28;42784;-81
2021/11/01 01:02:15;;;;;;;5.67;4.13;;;;;;;11.85;69.41;97491.72;5084054;28;42303;-80
2021/11/01 01:04:43;;;;;;;4.83;4.27;;;;;;;11.84;69.45;97495.34;5114075;28;41510;-80
2021/11/01 01:07:11;;;;;;;6.40;4.10;;;;;;;11.79;69.43;97502.88;5114115;28;43445;-81
2021/11/01 01:09:38;;;;;;;5.10;3.80;;;;;;;11.74;69.88;97496.28;5103590;28;41788;-80
2021/11/01 01:12:07;;;;;;;7.43;4.30;;;;;;;11.68;70.30;97481.75;5099615;28;42194;-81
2021/11/01 01:14:41;;;;;;;9.90;5.60;;;;;;;11.63;71.18;97477.81;5080667;28;40278;-79
2021/11/01 01:17:09;;;;;;;6.47;4.53;;;;;;;11.56;71.20;97460.78;5080615;28;42241;-79
2021/11/01 01:19:44;;;;;;;5.27;3.67;;;;;;;11.73;70.66;97476.88;5062405;28;41675;-81
2021/11/01 01:22:21;;;;;;;4.53;3.50;;;;;;;11.82;70.86;97478.72;5084809;28;41964;-86
2021/11/01 01:24:49;;;;;;;4.97;3.67;;;;;;;11.92;70.70;97475.25;5089619;28;40636;-85
2021/11/01 01:27:16;;;;;;;7.70;3.90;;;;;;;12.02;70.30;97476.09;5088445;28;41529;-82
2021/11/01 01:29:44;;;;;;;4.23;3.37;;;;;;;11.97;70.41;97457.13;5090987;28;42631;-86
2021/11/01 01:32:11;;;;;;;4.83;3.40;;;;;;;12.13;69.97;97474.13;5075780;28;41415;-86
2021/11/01 01:34:39;;;;;;;4.43;3.47;;;;;;;12.13;70.37;97470.66;5092908;28;38762;-91
2021/11/01 01:37:06;;;;;;;4.70;3.40;;;;;;;12.09;70.06;97466.63;5076474;28;40778;-90
2021/11/01 01:39:35;;;;;;;4.93;3.97;;;;;;;12.24;70.11;97481.97;5075686;28;41632;-85
2021/11/01 01:42:03;;;;;;;5.33;3.40;;;;;;;12.28;69.91;97487.00;5093313;28;41909;-88
2021/11/01 01:44:30;;;;;;;3.67;3.10;;;;;;;12.19;70.05;97472.75;5075252;28;39190;-87
2021/11/01 01:46:58;;;;;;;6.73;3.13;;;;;;;12.17;70.68;97453.47;5075362;28;40585;-85
2021/11/01 01:49:26;;;;;;;5.00;3.93;;;;;;;12.23;70.41;97463.56;5075311;28;42804;-83
2021/11/01 01:51:54;;;;;;;4.87;3.30;;;;;;;12.28;70.28;97463.94;5089971;28;41210;-88
2021/11/01 01:54:22;;;;;;;6.40;3.97;;;;;;;12.27;70.50;97454.31;5076199;28;38782;-88
2021/11/01 01:56:51;;;;;;;6.50;3.90;;;;;;;12.07;70.55;97418.16;5092755;28;41770;-85
2021/11/01 01:59:19;;;;;;;5.27;3.20;;;;;;;12.41;70.42;97467.16;5091766;28;43720;-87
2021/11/01 02:01:49;;;;;;;5.77;3.50;;;;;;;12.41;70.48;97459.19;5092835;28;42536;-86
2021/11/01 02:04:19;;;;;;;7.97;3.77;;;;;;;12.25;70.68;97437.69;5074626;28;40399;-89
2021/11/01 02:07:09;;;;;;;6.50;3.60;;;;;;;12.36;70.61;97456.13;5076231;28;42061;-86
2021/11/01 02:09:48;;;;;;;6.17;3.80;;;;;;;12.28;70.68;97461.28;5074029;28;42275;-84
2021/11/01 02:12:20;;;;;;;5.43;4.33;;;;;;;12.29;71.33;97468.28;5092110;28;42097;-86
2021/11/01 02:14:51;;;;;;;5.10;3.47;;;;;;;12.27;71.13;97466.75;5092735;28;40981;-84
2021/11/01 02:17:22;;;;;;;3.93;3.27;;;;;;;12.23;71.08;97458.25;5075297;28;40510;-84
2021/11/01 02:19:53;;;;;;;4.63;3.40;;;;;;;12.26;71.40;97463.25;5058298;28;42089;-88
2021/11/01 02:22:31;;;;;;;4.43;3.63;;;;;;;12.31;71.26;97462.84;5070975;28;42428;-86
2021/11/01 02:25:04;;;;;;;5.57;3.67;;;;;;;12.37;72.43;97468.41;5072433;28;38625;-86
2021/11/01 02:27:37;;;;;;;3.53;3.00;;;;;;;12.31;72.30;97455.72;5088903;28;42729;-89
2021/11/01 02:30:07;;;;;;;5.83;4.00;;;;;;;12.38;72.21;97467.44;5074256;28;41556;-85
2021/11/01 02:32:37;;;;;;;4.30;3.27;;;;;;;12.51;71.89;97486.56;5054381;28;41267;-86
2021/11/01 02:35:05;;;;;;;6.40;3.73;;;;;;;12.43;72.40;97467.84;5071651;28;39017;-87
2021/11/01 02:37:33;;;;;;;3.73;3.13;;;;;;;12.45;72.97;97479.19;5055196;28;40775;-82
2021/11/01 02:40:01;;;;;;;6.10;3.63;;;;;;;12.51;73.82;97483.06;5054963;28;42749;-84
2021/11/01 02:42:29;;;;;;;4.10;2.90;;;;;;;12.49;75.09;97491.19;5071530;28;42511;-86
2021/11/01 02:45:01;;;;;;;4.43;3.53;;;;;;;12.42;74.79;97479.47;5071281;28;38851;-84
2021/11/01 02:47:30;;;;;;;3.63;2.97;;;;;;;12.53;75.30;97499.72;5073091;28;41751;-85
2021/11/01 02:50:00;;;;;;;3.73;2.93;;;;;;;12.49;75.51;97493.81;5075098;28;41915;-84
2021/11/01 02:52:28;;;;;;;3.30;3.00;;;;;;;12.48;75.47;97476.25;5074879;28;42475;-87
2021/11/01 02:54:57;;;;;;;3.13;2.63;;;;;;;12.56;75.47;97492.31;5091368;28;39846;-84
2021/11/01 02:57:25;;;;;;;4.13;2.90;;;;;;;12.54;75.49;97482.78;5091416;28;39059;-85
2021/11/01 02:59:52;;;;;;;5.20;3.03;;;;;;;12.68;75.01;97502.78;5092923;28;43597;-83
2021/11/01 03:02:21;;;;;;;3.07;2.63;;;;;;;12.58;75.07;97469.09;5091322;28;43239;-85
2021/11/01 03:04:49;;;;;;;2.97;2.30;;;;;;;12.74;74.97;97484.44;5057918;28;38857;-88
2021/11/01 03:07:18;;;;;;;4.60;3.13;;;;;;;12.70;74.85;97477.75;5072762;28;41812;-88
2021/11/01 03:09:48;;;;;;;4.97;2.60;;;;;;;12.77;75.30;97489.47;5054772;28;41362;-82
2021/11/01 03:12:17;;;;;;;4.20;2.77;;;;;;;12.69;75.42;97473.41;5077302;28;43158;-86
2021/11/01 03:14:56;;;;;;;3.60;2.57;;;;;;;12.82;77.83;97487.22;5091563;28;40262;-84
2021/11/01 03:17:27;;;;;;;2.87;2.10;;;;;;;12.80;77.16;97478.56;5057351;28;40952;-87
2021/11/01 03:20:05;;;;;;;2.77;1.83;;;;;;;12.94;77.06;97490.56;5074861;28;42235;-84
2021/11/01 03:22:37;;;;;;;2.87;2.37;;;;;;;12.99;76.93;97498.91;5089900;28;42258;-86
2021/11/01 03:25:13;;;;;;;2.60;2.40;;;;;;;12.93;77.64;97489.72;5058053;28;39108;-85
2021/11/01 03:27:44;;;;;;;2.50;2.00;;;;;;;13.07;78.59;97512.34;5071162;28;40501;-86
2021/11/01 03:30:13;;;;;;;3.47;2.20;;;;;;;13.07;78.57;97501.72;5054697;28;41632;-84
2021/11/01 03:32:43;;;;;;;3.00;2.50;;;;;;;13.12;78.47;97504.75;5069620;28;40952;-87
2021/11/01 03:35:12;;;;;;;3.30;2.13;;;;;;;13.16;78.51;97498.22;5090970;28;39180;-84
2021/11/01 03:37:41;;;;;;;2.60;2.27;;;;;;;13.17;79.01;97497.22;5090797;28;40438;-88
2021/11/01 03:40:13;;;;;;;3.63;2.07;;;;;;;13.02;79.69;97466.75;5074887;28;43755;-83
2021/11/01 03:42:42;;;;;;;2.53;1.80;;;;;;;13.20;79.69;97499.59;5090566;28;42260;-83
2021/11/01 03:45:11;;;;;;;2.13;1.53;;;;;;;13.17;79.41;97497.22;5091784;28;40944;-83
2021/11/01 03:47:42;;;;;;;2.53;1.70;;;;;;;13.24;79.26;97508.09;5090550;28;42357;-85
2021/11/01 03:50:20;;;;;;;2.37;2.00;;;;;;;13.25;78.81;97509.78;5088120;28;42780;-83
2021/11/01 03:52:51;;;;;;;2.63;1.80;;;;;;;13.29;78.46;97511.19;5068871;28;42178;-83
2021/11/01 03:55:19;;;;;;;1.57;1.40;;;;;;;13.23;78.73;97501.94;5055359;28;39282;-87
2021/11/01 03:57:47;;;;;;;1.43;1.30;;;;;;;13.33;78.78;97514.41;5054843;28;41398;-84
2021/11/01 04:00:16;;;;;;;1.60;1.40;;;;;;;13.32;78.55;97510.06;5070871;28;43411;-83
2021/11/01 04:02:45;;;;;;;1.33;1.17;;;;;;;13.37;78.23;97518.41;5088364;28;42198;-87
2021/11/01 04:05:14;;;;;;;1.60;1.30;;;;;;;13.37;78.31;97513.09;5090564;28;39617;-82
2021/11/01 04:07:43;;;;;;;1.30;1.07;;;;;;;13.40;77.58;97520.78;5091447;28;41460;-88
2021/11/01 04:10:11;;;;;;;1.70;1.10;;;;;;;13.34;78.16;97518.72;5072635;28;42786;-82
2021/11/01 04:12:39;;;;;;;2.27;1.10;;;;;;;13.35;78.05;97515.09;5090522;28;42301;-84
2021/11/01 04:15:10;;;;;;;1.00;0.87;;;;;;;13.39;77.86;97537.72;5073904;28;39990;-85
2021/11/01 04:17:42;;;;;;;0.70;0.70;;;;;;;13.36;78.45;97533.53;5090606;28;41678;-84
2021/11/01 04:20:25;;;;;;;3.73;1.00;;;;;;;13.35;78.70;97547.00;5088273;28;43030;-83
2021/11/01 04:22:59;;;;;;;0.70;0.70;;;;;;;13.25;78.61;97531.88;5073857;28;41120;-83
2021/11/01 04:25:27;;;;;;;1.10;0.90;;;;;;;13.34;78.65;97555.94;5073119;28;39895;-83
2021/11/01 04:27:57;;;;;;;0.70;0.60;;;;;;;13.32;78.55;97558.75;5093679;28;40631;-84
2021/11/01 04:30:25;;;;;;;0.80;0.80;;;;;;;13.22;79.26;97553.47;5054752;28;41958;-84
2021/11/01 04:32:55;;;;;;;1.17;0.80;;;;;;;13.26;80.11;97570.78;5054042;28;42610;-82
2021/11/01 04:35:25;;;;;;;0.60;0.60;;;;;;;13.21;80.09;97580.19;5054228;28;40244;-84
2021/11/01 04:37:59;;;;;;;1.10;1.00;;;;;;;13.19;80.07;97583.00;5069842;28;41778;-83
2021/11/01 04:40:36;;;;;;;0.63;0.60;;;;;;;13.20;80.24;97586.50;5083836;28;43353;-84
2021/11/01 04:43:38;;;;;;;0.80;0.73;;;;;;;13.19;80.28;97585.66;5073445;28;41397;-86
2021/11/01 04:54:20;;;;;;;1.13;0.80;;;;;;;13.15;79.52;97588.72;5052358;28;41403;-84
2021/11/01 04:56:50;;;;;;;1.20;0.80;;;;;;;12.82;79.76;97539.53;5070319;28;39912;-84
2021/11/01 04:59:18;;;;;;;1.70;0.57;;;;;;;13.14;79.55;97601.19;5054298;28;40817;-83
2021/11/01 10:43:27;;;;;;;0.40;0.40;;;;;;;10.79;99.27;97749.94;5147635;27;20545;-83
2021/11/01 10:46:31;;;;;;;0.70;0.60;;;;;;;11.43;98.79;97765.84;5132578;27;39136;-80
2021/11/01 11:11:21;;;;;;;0.80;0.50;;;;;;;13.21;80.73;97753.84;5112604;27;41912;-78
2021/11/01 11:13:56;;;;;;;3.80;1.10;;;;;;;13.36;80.06;97761.38;5130514;27;43020;-88
2021/11/01 11:16:53;;;;;;;0.67;0.50;;;;;;;13.41;79.75;97745.84;5129459;27;42749;-82
2021/11/01 11:19:28;;;;;;;0.40;0.40;;;;;;;13.57;79.16;97727.50;5128333;27;39194;-86
2021/11/01 11:22:29;;;;;;;1.13;0.67;;;;;;;13.83;78.56;97755.19;5114402;27;41742;-84
2021/11/01 11:25:13;;;;;;;0.40;0.40;;;;;;;13.94;77.61;97752.34;5121871;27;42897;-81
2021/11/01 11:47:43;;;;;;;0.47;0.47;;;;;;;14.36;73.99;97762.56;5127682;27;44000;-78
2021/11/01 11:50:19;;;;;;;0.50;0.50;;;;;;;14.10;73.79;97741.09;5120268;27;41236;-82
2021/11/01 11:52:48;;;;;;;1.80;0.70;;;;;;;14.32;74.00;97769.19;5115593;27;40488;-79
2021/11/01 11:55:23;;;;;;;0.70;0.70;;;;;;;14.20;73.78;97733.09;5114042;27;41616;-78
2021/11/01 11:57:57;;;;;;;1.97;0.73;;;;;;;14.35;72.89;97750.25;5108968;28;42959;-80
2021/11/01 12:00:27;;;;;;;0.60;0.60;;;;;;;14.37;72.15;97766.94;5120052;27;42001;-78
2021/11/01 12:02:56;;;;;;;0.60;0.60;;;;;;;14.37;72.54;97764.25;5102204;28;40158;-77
2021/11/01 12:05:37;;;;;;;1.53;0.90;;;;;;;14.40;72.90;97774.66;5128382;27;42439;-78
2021/11/01 12:08:09;;;;;;;0.63;0.50;;;;;;;14.41;72.53;97755.03;5124468;27;42805;-80
2021/11/01 12:11:12;;;;;;;1.20;0.70;;;;;;;14.47;72.35;97746.44;5122517;27;43450;-79
2021/11/01 12:19:14;;;;;;;1.60;0.73;;;;;;;14.67;70.75;97733.88;5110373;27;41850;-81
2021/11/01 12:21:46;;;;;;;0.40;0.40;;;;;;;14.73;70.58;97736.78;5114526;27;41171;-80
2021/11/01 12:24:20;;;;;;;2.10;0.90;;;;;;;14.76;70.17;97721.47;5113294;27;39054;-78
2021/11/01 12:26:48;;;;;;;0.93;0.60;;;;;;;14.93;70.18;97723.34;5131190;27;42322;-78
2021/11/01 12:29:17;;;;;;;2.13;0.53;;;;;;;15.03;69.80;97727.63;5114455;27;42894;-77
2021/11/01 12:31:46;;;;;;;0.67;0.47;;;;;;;14.92;68.62;97727.84;5098073;27;41270;-79
2021/11/01 12:34:18;;;;;;;0.50;0.50;;;;;;;14.86;68.41;97751.56;5113762;27;39022;-78
2021/11/01 12:36:56;;;;;;;0.30;0.30;;;;;;;14.82;69.50;97731.56;5131120;27;41611;-80
2021/11/01 12:39:31;;;;;;;0.60;0.60;;;;;;;14.79;70.35;97731.84;5130302;27;43757;-77
2021/11/01 12:58:38;;;;;;;1.37;0.70;;;;;;;14.19;70.07;97713.63;5102507;27;40501;-78
2021/11/01 13:01:07;;;;;;;0.70;0.50;;;;;;;13.93;70.22;97677.97;5113956;27;42896;-78
2021/11/01 13:03:35;;;;;;;2.30;0.57;;;;;;;13.92;70.43;97698.44;5129437;27;42435;-80
2021/11/01 13:06:07;;;;;;;0.50;0.50;;;;;;;13.88;70.70;97683.72;5106641;27;38882;-83
2021/11/01 13:08:44;;;;;;;1.03;0.40;;;;;;;13.72;71.09;97669.38;5105109;27;40927;-81
2021/11/01 13:19:34;;;;;;;0.70;0.60;;;;;;;13.79;71.59;97705.06;5113000;27;42964;-82
2021/11/01 13:22:09;;;;;;;0.50;0.50;;;;;;;13.83;71.15;97712.63;5125267;27;42625;-78
2021/11/01 13:24:46;;;;;;;0.40;0.40;;;;;;;13.77;71.63;97718.50;5122916;27;42427;-79
2021/11/01 13:27:31;;;;;;;0.70;0.70;;;;;;;13.68;71.98;97698.06;5097366;28;39208;-80
2021/11/01 13:35:45;;;;;;;0.50;0.50;;;;;;;13.60;72.37;97685.47;5112446;27;43440;-79
2021/11/01 13:38:13;;;;;;;0.70;0.70;;;;;;;13.44;72.31;97657.81;5101755;27;39157;-80
2021/11/01 13:40:45;;;;;;;0.60;0.60;;;;;;;13.51;72.13;97680.19;5112827;27;42131;-80
2021/11/01 13:43:12;;;;;;;2.17;0.70;;;;;;;13.44;72.15;97673.75;5130643;27;42802;-81
2021/11/01 13:45:50;;;;;;;1.17;1.07;;;;;;;13.47;72.05;97674.31;5109911;27;41242;-79
2021/11/01 13:48:25;;;;;;;0.40;0.40;;;;;;;13.56;71.95;97688.59;5106130;27;38900;-79
2021/11/01 13:51:02;;;;;;;0.50;0.50;;;;;;;13.60;71.97;97693.44;5113599;27;40733;-80
2021/11/01 13:53:34;;;;;;;0.73;0.60;;;;;;;13.64;71.98;97702.00;5100577;27;41690;-78
2021/11/01 13:56:19;;;;;;;1.10;0.70;;;;;;;13.66;72.27;97689.41;5124562;27;42240;-80
2021/11/01 13:58:56;;;;;;;0.70;0.53;;;;;;;13.59;72.00;97693.63;5105399;27;38881;-81
2021/11/01 14:01:36;;;;;;;1.70;0.87;;;;;;;13.52;72.09;97687.19;5112111;27;40435;-78
2021/11/01 14:12:40;;;;;;;0.40;0.40;;;;;;;13.54;72.52;97685.22;5080514;27;41111;-80
2021/11/01 14:15:13;;;;;;;0.57;0.57;;;;;;;13.51;72.46;97690.81;5128825;27;42859;-77
2021/11/01 14:20:43;;;;;;;1.00;0.40;;;;;;;13.41;72.67;97697.97;5084455;27;40190;-79
2021/11/01 15:07:50;;;;;;;0.50;0.50;;;;;;;13.02;73.18;97650.13;5116181;27;41690;-79
2021/11/01 15:10:46;;;;;;;0.50;0.50;;;;;;;12.96;73.65;97653.34;5117401;27;42359;-81
2021/11/01 15:13:39;;;;;;;0.53;0.53;;;;;;;12.86;73.66;97652.47;5125737;27;42547;-79
2021/11/01 15:19:04;;;;;;;0.47;0.40;;;;;;;12.79;73.54;97651.38;5089377;27;42678;-78
2021/11/01 15:21:36;;;;;;;0.40;0.40;;;;;;;12.63;73.54;97620.03;5123537;27;44241;-80
2021/11/01 15:24:22;;;;;;;0.60;0.60;;;;;;;12.61;73.71;97631.81;5098514;27;41370;-83
2021/11/01 15:32:57;;;;;;;0.50;0.50;;;;;;;12.45;73.97;97643.78;5114968;27;41794;-78
2021/11/01 16:19:27;;;;;;;0.50;0.40;;;;;;;12.21;74.15;97640.66;5131544;27;42275;-78
2021/11/01 16:21:56;;;;;;;0.43;0.43;;;;;;;12.17;74.42;97639.25;5109244;28;40149;-86
2021/11/01 16:24:30;;;;;;;0.67;0.60;;;;;;;12.27;74.46;97668.47;5105169;27;42813;-79
2021/11/01 16:26:59;;;;;;;0.80;0.40;;;;;;;12.25;74.20;97668.59;5116438;27;44696;-78
2021/11/01 16:29:37;;;;;;;0.40;0.40;;;;;;;12.24;74.01;97666.91;5109525;27;41399;-80
2021/11/01 16:32:10;;;;;;;1.07;0.50;;;;;;;12.11;74.06;97645.13;5131006;27;38996;-80
2021/11/01 16:34:39;;;;;;;1.70;0.50;;;;;;;11.81;74.10;97601.72;5101178;28;42081;-80
2021/11/01 16:37:21;;;;;;;0.40;0.40;;;;;;;12.19;74.33;97653.22;5108183;27;41584;-81
2021/11/01 16:39:51;;;;;;;1.17;0.80;;;;;;;12.19;74.28;97659.38;5114541;27;41095;-80
2021/11/01 16:42:27;;;;;;;0.77;0.60;;;;;;;12.05;74.32;97641.16;5121849;27;40405;-79
2021/11/01 16:45:02;;;;;;;1.37;0.67;;;;;;;12.15;74.54;97662.44;5108944;27;40914;-79
2021/11/01 16:47:30;;;;;;;0.70;0.70;;;;;;;12.14;74.41;97650.97;5121071;27;42720;-79
2021/11/01 16:49:59;;;;;;;0.80;0.70;;;;;;;12.12;74.38;97652.91;5105340;27;42466;-79
2021/11/01 16:52:27;;;;;;;0.80;0.70;;;;;;;12.03;74.52;97639.63;5124175;27;39052;-79
2021/11/01 16:54:57;;;;;;;0.70;0.70;;;;;;;12.09;74.76;97657.69;5120168;27;42731;-80
2021/11/01 16:57:28;;;;;;;1.57;0.70;;;;;;;12.05;74.73;97661.56;5107639;27;41840;-80
2021/11/01 17:00:08;;;;;;;1.20;1.10;;;;;;;12.14;74.42;97676.66;5106804;27;42637;-79
2021/11/01 17:02:44;;;;;;;0.80;0.77;;;;;;;12.02;74.58;97664.47;5117881;27;39845;-79
2021/11/01 17:05:25;;;;;;;0.70;0.50;;;;;;;12.09;74.35;97665.63;5089259;27;41542;-80
2021/11/01 17:22:01;;;;;;;0.90;0.90;;;;;;;12.04;74.43;97678.44;5111192;27;40955;-80
2021/11/01 17:24:38;;;;;;;0.70;0.60;;;;;;;12.02;74.42;97677.75;5089149;27;39111;-80
2021/11/01 17:30:14;;;;;;;0.70;0.70;;;;;;;11.67;74.39;97628.56;5073970;27;43851;-79
2021/11/01 17:35:50;;;;;;;1.63;0.70;;;;;;;11.87;74.79;97662.16;5070410;27;38842;-80
